createdAt,value
2022-10-08T00:01:56.720Z,7.28
2022-10-08T00:04:25.142Z,9.07
2022-10-08T00:06:54.228Z,8.75
2022-10-08T00:09:22.627Z,15.45
2022-10-08T00:11:50.905Z,13.90
2022-10-08T00:14:22.048Z,14.52
2022-10-08T00:16:52.131Z,11.00
2022-10-08T00:19:21.731Z,14.32
2022-10-08T00:21:53.358Z,9.55
2022-10-08T00:24:22.203Z,8.80
2022-10-08T00:26:54.167Z,10.68
2022-10-08T00:29:25.742Z,15.20
2022-10-08T00:31:55.428Z,9.25
2022-10-08T00:34:26.762Z,7.85
2022-10-08T00:36:56.654Z,10.40
2022-10-08T00:39:26.166Z,11.25
2022-10-08T00:41:56.442Z,17.17
2022-10-08T00:44:50.874Z,15.93
2022-10-08T00:47:25.798Z,12.93
2022-10-08T00:50:00.299Z,16.63
2022-10-08T00:52:37.108Z,18.88
2022-10-08T00:55:10.957Z,12.05
2022-10-08T00:57:42.893Z,11.52
2022-10-08T01:00:16.691Z,12.90
2022-10-08T01:02:46.507Z,12.07
2022-10-08T01:05:21.544Z,11.77
2022-10-08T01:07:56.327Z,14.18
2022-10-08T01:10:34.732Z,11.65
2022-10-08T01:13:18.154Z,12.02
2022-10-08T01:15:57.957Z,12.95
2022-10-08T01:18:35.576Z,13.23
2022-10-08T01:21:11.852Z,11.73
2022-10-08T01:24:03.232Z,11.20
2022-10-08T01:26:43.573Z,13.13
2022-10-08T01:29:21.364Z,10.27
2022-10-08T01:31:54.093Z,13.27
2022-10-08T01:34:31.531Z,11.82
2022-10-08T01:37:02.677Z,16.05
2022-10-08T01:39:36.895Z,14.32
2022-10-08T01:42:09.721Z,10.75
2022-10-08T01:44:43.245Z,14.98
2022-10-08T01:47:15.606Z,13.55
2022-10-08T01:49:46.643Z,11.27
2022-10-08T01:52:22.537Z,15.20
2022-10-08T01:54:55.194Z,12.90
2022-10-08T01:57:25.751Z,9.40
2022-10-08T02:00:00.139Z,15.95
2022-10-08T02:02:28.637Z,12.35
2022-10-08T02:04:57.002Z,12.98
2022-10-08T02:07:29.010Z,10.35
2022-10-08T02:10:06.015Z,15.23
2022-10-08T02:12:34.620Z,15.13
2022-10-08T02:15:06.484Z,14.18
2022-10-08T02:17:46.995Z,13.27
2022-10-08T02:20:20.666Z,15.10
2022-10-08T02:22:54.906Z,9.93
2022-10-08T02:25:29.875Z,18.67
2022-10-08T02:28:07.578Z,14.68
2022-10-08T02:30:45.558Z,17.10
2022-10-08T02:33:19.749Z,13.93
2022-10-08T02:35:53.173Z,17.05
2022-10-08T02:38:26.851Z,8.75
2022-10-08T02:41:02.206Z,14.23
2022-10-08T02:43:33.998Z,11.90
2022-10-08T02:46:09.849Z,17.17
2022-10-08T02:48:42.460Z,12.20
2022-10-08T02:51:15.647Z,13.82
2022-10-08T02:53:45.722Z,15.30
2022-10-08T02:56:21.181Z,12.02
2022-10-08T02:58:50.849Z,14.10
2022-10-08T03:01:26.827Z,17.42
2022-10-08T03:04:01.634Z,8.85
2022-10-08T03:06:31.502Z,11.02
2022-10-08T03:09:01.573Z,12.95
2022-10-08T03:11:31.522Z,16.90
2022-10-08T03:14:03.792Z,13.32
2022-10-08T03:16:42.626Z,9.63
2022-10-08T03:19:13.539Z,13.23
2022-10-08T03:21:44.616Z,10.20
2022-10-08T03:24:15.435Z,12.05
2022-10-08T03:26:44.929Z,11.73
2022-10-08T03:29:13.794Z,14.15
2022-10-08T03:31:43.509Z,10.10
2022-10-08T03:34:11.976Z,15.25
2022-10-08T03:36:40.415Z,18.63
2022-10-08T03:39:10.171Z,12.30
2022-10-08T03:41:38.590Z,16.05
2022-10-08T03:44:09.101Z,15.43
2022-10-08T03:46:37.538Z,16.90
2022-10-08T03:49:07.310Z,14.77
2022-10-08T03:51:35.710Z,9.13
2022-10-08T03:54:04.221Z,14.10
2022-10-08T03:56:34.577Z,12.85
2022-10-08T03:59:03.862Z,13.77
2022-10-08T04:01:32.241Z,11.60
2022-10-08T04:04:03.727Z,9.20
2022-10-08T04:06:33.497Z,15.18
2022-10-08T04:09:02.716Z,9.85
2022-10-08T04:11:31.452Z,13.32
2022-10-08T04:14:01.209Z,16.23
2022-10-08T04:16:29.583Z,10.35
2022-10-08T04:18:58.184Z,9.02
2022-10-08T04:21:26.420Z,13.32
2022-10-08T04:23:57.332Z,13.38
2022-10-08T04:26:25.506Z,14.50
2022-10-08T04:28:53.851Z,12.07
2022-10-08T04:31:23.579Z,9.68
2022-10-08T04:33:52.962Z,9.88
2022-10-08T04:36:23.073Z,7.55
2022-10-08T04:38:52.035Z,11.45
2022-10-08T04:41:23.639Z,15.27
2022-10-08T04:43:53.142Z,13.43
2022-10-08T04:46:23.287Z,15.70
2022-10-08T04:48:52.957Z,10.35
2022-10-08T04:51:23.274Z,15.18
2022-10-08T04:53:51.994Z,12.10
2022-10-08T04:56:23.113Z,11.15
2022-10-08T04:58:56.199Z,9.82
2022-10-08T05:01:28.489Z,8.90
2022-10-08T05:03:58.064Z,11.32
2022-10-08T05:06:28.299Z,9.63
2022-10-08T05:08:56.633Z,9.77
2022-10-08T05:11:30.122Z,12.65
2022-10-08T05:13:59.833Z,10.80
2022-10-08T05:16:28.849Z,18.88
2022-10-08T05:18:58.089Z,12.00
2022-10-08T05:21:29.812Z,10.98
2022-10-08T05:23:59.920Z,10.68
2022-10-08T05:27:01.994Z,12.13
2022-10-08T05:29:20.556Z,7.45
2022-10-08T05:31:48.912Z,7.32
2022-10-08T05:34:17.290Z,13.18
2022-10-08T05:36:46.318Z,8.27
2022-10-08T05:39:15.434Z,9.98
2022-10-08T05:41:45.615Z,12.07
2022-10-08T05:44:14.370Z,7.53
2022-10-08T05:46:42.774Z,10.52
2022-10-08T05:49:20.904Z,14.05
2022-10-08T05:51:51.573Z,14.68
2022-10-08T05:54:20.255Z,15.52
2022-10-08T05:56:50.096Z,16.38
2022-10-08T05:59:20.325Z,8.68
2022-10-08T06:01:49.088Z,8.93
2022-10-08T06:04:19.873Z,9.45
2022-10-08T06:06:48.446Z,14.23
2022-10-08T06:09:18.224Z,16.95
2022-10-08T06:11:47.555Z,13.88
2022-10-08T06:14:19.270Z,15.25
2022-10-08T06:16:47.847Z,11.25
2022-10-08T06:19:17.249Z,8.98
2022-10-08T06:21:46.529Z,7.88
2022-10-08T06:24:18.802Z,11.00
2022-10-08T06:26:50.651Z,11.43
2022-10-08T06:29:22.515Z,12.75
2022-10-08T06:31:50.995Z,6.53
2022-10-08T06:34:19.663Z,7.35
2022-10-08T06:36:48.773Z,7.47
2022-10-08T06:39:18.987Z,9.13
2022-10-08T06:41:47.334Z,11.07
2022-10-08T06:44:19.454Z,7.75
2022-10-08T06:46:49.319Z,8.77
2022-10-08T06:49:19.594Z,13.20
2022-10-08T06:51:48.050Z,9.98
2022-10-08T06:54:16.877Z,7.78
2022-10-08T06:56:49.818Z,6.75
2022-10-08T06:59:18.407Z,8.18
2022-10-08T07:01:48.435Z,8.80
2022-10-08T07:04:17.973Z,6.72
2022-10-08T07:06:47.655Z,14.13
2022-10-08T07:09:17.906Z,10.93
2022-10-08T07:11:49.110Z,7.72
2022-10-08T07:14:17.520Z,9.68
2022-10-08T07:16:46.353Z,11.25
2022-10-08T07:19:16.363Z,11.98
2022-10-08T07:21:44.492Z,7.68
2022-10-08T07:24:14.829Z,11.95
2022-10-08T07:26:45.113Z,9.30
2022-10-08T07:29:15.177Z,7.57
2022-10-08T07:31:43.752Z,9.30
2022-10-08T07:34:14.782Z,8.73
2022-10-08T07:36:45.969Z,11.02
2022-10-08T07:39:16.656Z,13.13
2022-10-08T07:41:44.916Z,10.68
2022-10-08T07:44:15.269Z,8.15
2022-10-08T07:46:48.132Z,7.97
2022-10-08T07:49:21.060Z,10.70
2022-10-08T07:51:50.784Z,11.13
2022-10-08T07:54:20.766Z,8.85
2022-10-08T07:56:49.387Z,12.77
2022-10-08T07:59:17.798Z,13.18
2022-10-08T08:01:46.391Z,9.50
2022-10-08T08:04:18.954Z,10.63
2022-10-08T08:06:48.694Z,10.30
2022-10-08T08:09:18.680Z,13.48
2022-10-08T08:11:49.422Z,13.00
2022-10-08T08:14:20.532Z,9.13
2022-10-08T08:16:50.567Z,10.50
2022-10-08T08:19:19.974Z,10.88
2022-10-08T08:21:48.861Z,12.00
2022-10-08T08:24:20.977Z,9.55
2022-10-08T08:26:49.318Z,13.80
2022-10-08T08:29:21.939Z,13.95
2022-10-08T08:31:51.050Z,10.38
2022-10-08T08:34:23.052Z,11.48
2022-10-08T08:36:54.707Z,11.25
2022-10-08T08:39:29.272Z,9.38
2022-10-08T08:42:25.047Z,12.13
2022-10-08T08:45:03.375Z,8.27
2022-10-08T08:47:37.672Z,10.98
2022-10-08T08:50:10.166Z,11.68
2022-10-08T08:52:43.592Z,12.85
2022-10-08T08:55:16.254Z,9.77
2022-10-08T08:57:57.580Z,12.88
2022-10-08T09:00:33.008Z,7.50
2022-10-08T09:03:03.626Z,15.55
2022-10-08T09:05:34.724Z,8.75
2022-10-08T09:08:08.936Z,11.85
2022-10-08T09:10:48.310Z,8.05
2022-10-08T09:13:20.523Z,11.73
2022-10-08T09:15:48.934Z,11.75
2022-10-08T09:18:25.207Z,9.30
2022-10-08T09:20:55.543Z,11.00
2022-10-08T09:23:25.209Z,8.25
2022-10-08T09:26:01.483Z,10.32
2022-10-08T09:28:42.026Z,10.25
2022-10-08T09:31:27.593Z,11.23
2022-10-08T09:33:59.317Z,9.07
2022-10-08T09:36:41.820Z,8.68
2022-10-08T09:39:19.433Z,11.88
2022-10-08T09:42:12.055Z,16.60
2022-10-08T09:44:43.503Z,11.55
2022-10-08T09:47:14.148Z,12.65
2022-10-08T09:49:49.854Z,16.75
2022-10-08T09:52:23.581Z,9.63
2022-10-08T09:54:58.481Z,12.93
2022-10-08T09:57:29.962Z,12.15
2022-10-08T10:00:00.139Z,8.75
2022-10-08T10:02:32.062Z,18.90
2022-10-08T10:05:05.923Z,8.25
2022-10-08T10:07:39.989Z,9.00
2022-10-08T10:10:19.543Z,12.60
2022-10-08T10:12:54.691Z,13.70
2022-10-08T10:15:31.263Z,11.93
2022-10-08T10:18:03.239Z,12.90
2022-10-08T10:20:38.317Z,11.38
2022-10-08T10:23:15.478Z,11.38
2022-10-08T10:25:49.602Z,10.07
2022-10-08T10:28:26.333Z,10.60
2022-10-08T10:31:00.893Z,6.53
2022-10-08T10:33:33.780Z,9.13
2022-10-08T10:36:06.561Z,10.02
2022-10-08T10:38:43.250Z,7.03
2022-10-08T10:41:19.710Z,8.30
2022-10-08T10:43:52.907Z,9.75
2022-10-08T10:46:30.079Z,7.00
2022-10-08T10:48:58.774Z,5.65
2022-10-08T10:51:42.294Z,8.65
2022-10-08T10:54:27.082Z,6.75
2022-10-08T10:57:01.809Z,8.23
2022-10-08T10:59:41.427Z,8.13
2022-10-08T11:02:22.033Z,5.72
2022-10-08T11:05:01.989Z,7.55
2022-10-08T11:07:52.806Z,7.18
2022-10-08T11:10:33.766Z,8.45
2022-10-08T11:13:12.637Z,6.93
2022-10-08T11:15:50.509Z,5.30
2022-10-08T11:18:31.087Z,7.45
2022-10-08T11:21:13.968Z,15.65
2022-10-08T11:23:58.058Z,22.75
2022-10-08T11:26:33.455Z,23.17
2022-10-08T11:29:10.798Z,18.30
2022-10-08T11:31:46.543Z,6.63
2022-10-08T11:34:27.899Z,8.40
2022-10-08T11:37:04.793Z,4.88
2022-10-08T11:39:43.441Z,7.40
2022-10-08T11:42:21.650Z,5.38
2022-10-08T11:44:50.595Z,5.78
2022-10-08T11:47:54.506Z,12.40
2022-10-08T11:50:31.393Z,6.63
2022-10-08T11:53:14.381Z,4.22
2022-10-08T11:55:52.293Z,8.18
2022-10-08T11:58:29.434Z,8.07
2022-10-08T12:01:04.373Z,8.20
2022-10-08T12:03:37.379Z,9.23
2022-10-08T12:06:19.158Z,10.43
2022-10-08T12:08:53.463Z,6.65
2022-10-08T12:11:50.748Z,8.38
2022-10-08T12:14:47.359Z,5.97
2022-10-08T12:17:17.836Z,6.65
2022-10-08T12:20:05.238Z,5.85
2022-10-08T12:22:45.299Z,4.57
2022-10-08T12:25:37.013Z,4.97
2022-10-08T12:28:40.456Z,4.38
2022-10-08T12:31:33.332Z,2.90
2022-10-08T12:34:14.123Z,4.55
2022-10-08T12:36:58.445Z,6.38
2022-10-08T12:39:39.253Z,4.63
2022-10-08T12:42:20.409Z,5.25
2022-10-08T12:45:05.722Z,3.45
2022-10-08T12:47:43.115Z,3.58
2022-10-08T12:50:31.638Z,2.72
2022-10-08T12:53:02.753Z,2.35
2022-10-08T12:55:38.036Z,6.28
2022-10-08T12:58:07.037Z,5.38
2022-10-08T13:00:36.058Z,4.00
2022-10-08T13:03:06.133Z,4.93
2022-10-08T13:05:36.844Z,6.22
2022-10-08T13:08:32.426Z,6.97
2022-10-08T13:11:03.026Z,5.88
2022-10-08T13:13:37.224Z,5.45
2022-10-08T13:16:08.363Z,6.70
2022-10-08T13:18:38.237Z,4.05
2022-10-08T13:21:08.956Z,4.28
2022-10-08T13:23:44.632Z,9.13
2022-10-08T13:26:40.870Z,6.25
2022-10-08T13:29:30.794Z,5.20
2022-10-08T13:32:06.146Z,6.22
2022-10-08T13:34:43.240Z,4.28
2022-10-08T13:37:14.224Z,8.25
2022-10-08T13:39:54.472Z,4.15
2022-10-08T13:42:28.273Z,7.35
2022-10-08T13:44:58.405Z,5.03
2022-10-08T13:47:29.012Z,5.15
2022-10-08T13:50:01.803Z,6.35
2022-10-08T13:52:34.007Z,5.80
2022-10-08T13:55:06.754Z,7.65
2022-10-08T13:57:35.660Z,5.47
2022-10-08T14:00:23.167Z,5.72
2022-10-08T14:02:52.320Z,4.95
2022-10-08T14:05:23.220Z,5.78
2022-10-08T14:07:54.593Z,6.35
2022-10-08T14:10:25.200Z,6.88
2022-10-08T14:12:54.840Z,7.80
2022-10-08T14:15:24.483Z,4.95
2022-10-08T14:17:53.567Z,4.72
2022-10-08T14:20:25.148Z,4.35
2022-10-08T14:22:53.731Z,5.60
2022-10-08T14:25:25.763Z,3.63
2022-10-08T14:27:53.940Z,4.55
2022-10-08T14:30:24.164Z,5.72
2022-10-08T14:32:52.549Z,2.80
2022-10-08T14:35:21.739Z,7.78
2022-10-08T14:37:50.467Z,4.28
2022-10-08T14:40:21.545Z,4.97
2022-10-08T14:42:54.039Z,4.57
2022-10-08T14:45:23.016Z,4.22
2022-10-08T14:47:52.180Z,4.03
2022-10-08T14:50:20.699Z,4.18
2022-10-08T14:52:49.064Z,3.85
2022-10-08T14:55:17.754Z,5.82
2022-10-08T14:57:46.069Z,4.10
2022-10-08T15:00:16.923Z,3.20
2022-10-08T15:02:45.378Z,7.47
2022-10-08T15:05:13.929Z,5.15
2022-10-08T15:07:42.342Z,4.93
2022-10-08T15:10:10.930Z,1.50
2022-10-08T15:12:39.476Z,3.28
2022-10-08T15:15:08.568Z,4.28
2022-10-08T15:17:38.392Z,6.18
2022-10-08T15:20:07.593Z,4.40
2022-10-08T15:22:36.077Z,3.50
2022-10-08T15:25:05.674Z,5.20
2022-10-08T15:27:34.100Z,6.53
2022-10-08T15:30:02.415Z,5.60
2022-10-08T15:32:30.864Z,7.18
2022-10-08T15:35:03.126Z,11.25
2022-10-08T15:37:32.013Z,10.57
2022-10-08T15:40:00.761Z,11.80
2022-10-08T15:42:36.757Z,4.32
2022-10-08T15:45:08.314Z,5.13
2022-10-08T15:47:36.666Z,6.18
2022-10-08T15:50:07.677Z,3.45
2022-10-08T15:52:35.988Z,6.22
2022-10-08T15:55:05.666Z,4.30
2022-10-08T15:57:36.499Z,5.30
2022-10-08T16:00:07.239Z,3.80
2022-10-08T16:02:38.762Z,5.32
2022-10-08T16:05:10.349Z,4.57
2022-10-08T16:07:39.492Z,3.05
2022-10-08T16:10:10.082Z,4.72
2022-10-08T16:12:38.511Z,6.15
2022-10-08T16:15:07.576Z,4.32
2022-10-08T16:17:35.951Z,5.90
2022-10-08T16:20:04.580Z,5.93
2022-10-08T16:22:35.566Z,7.45
2022-10-08T16:25:03.938Z,4.65
2022-10-08T16:27:32.105Z,7.53
2022-10-08T16:30:00.335Z,2.95
2022-10-08T16:32:30.987Z,4.30
2022-10-08T16:35:00.388Z,6.60
2022-10-08T16:37:30.924Z,3.10
2022-10-08T16:40:05.498Z,7.90
2022-10-08T16:42:33.801Z,4.13
2022-10-08T16:45:02.171Z,5.95
2022-10-08T16:47:30.328Z,5.60
2022-10-08T16:50:00.695Z,5.75
2022-10-08T16:52:28.901Z,5.90
2022-10-08T16:54:57.568Z,4.15
2022-10-08T16:57:30.999Z,3.38
2022-10-08T17:00:01.609Z,4.57
2022-10-08T17:02:30.039Z,6.18
2022-10-08T17:04:58.497Z,4.90
2022-10-08T17:07:27.075Z,5.72
2022-10-08T17:09:57.054Z,5.03
2022-10-08T17:12:27.792Z,2.92
2022-10-08T17:14:56.292Z,7.03
2022-10-08T17:17:24.639Z,4.72
2022-10-08T17:19:54.101Z,5.20
2022-10-08T17:22:22.291Z,5.65
2022-10-08T17:24:50.539Z,3.55
2022-10-08T17:27:18.838Z,5.63
2022-10-08T17:29:53.858Z,4.20
2022-10-08T17:32:22.399Z,2.75
2022-10-08T17:34:50.648Z,3.80
2022-10-08T17:37:19.961Z,2.97
2022-10-08T17:39:48.296Z,4.93
2022-10-08T17:42:17.051Z,4.97
2022-10-08T17:44:45.429Z,4.70
2022-10-08T17:47:15.849Z,9.63
2022-10-08T17:49:44.252Z,6.20
2022-10-08T17:52:14.953Z,5.93
2022-10-08T17:54:43.436Z,5.93
2022-10-08T17:57:11.853Z,4.10
2022-10-08T17:59:41.612Z,5.80
2022-10-08T18:02:10.587Z,5.97
2022-10-08T18:04:40.893Z,5.18
2022-10-08T18:07:09.341Z,6.68
2022-10-08T18:09:37.976Z,6.70
2022-10-08T18:12:06.476Z,6.28
2022-10-08T18:14:34.771Z,13.77
2022-10-08T18:17:03.067Z,9.23
2022-10-08T18:19:31.316Z,3.58
2022-10-08T18:22:01.244Z,7.50
2022-10-08T18:24:31.981Z,4.22
2022-10-08T18:27:00.287Z,4.57
2022-10-08T18:29:31.106Z,4.63
2022-10-08T18:31:59.455Z,9.07
2022-10-08T18:34:27.732Z,9.45
2022-10-08T18:36:57.919Z,7.07
2022-10-08T18:39:28.798Z,4.82
2022-10-08T18:41:57.093Z,3.45
2022-10-08T18:44:27.441Z,4.95
2022-10-08T18:46:55.547Z,4.32
2022-10-08T18:49:30.271Z,5.72
2022-10-08T18:51:59.099Z,9.30
2022-10-08T18:54:28.965Z,9.25
2022-10-08T18:57:00.126Z,4.28
2022-10-08T18:59:31.197Z,7.30
2022-10-08T19:02:01.876Z,4.72
2022-10-08T19:04:31.748Z,4.35
2022-10-08T19:06:59.968Z,7.78
2022-10-08T19:09:32.389Z,5.45
2022-10-08T19:12:01.286Z,3.35
2022-10-08T19:14:31.997Z,7.53
2022-10-08T19:17:00.505Z,11.65
2022-10-08T19:19:29.591Z,13.98
2022-10-08T19:22:02.289Z,10.43
2022-10-08T19:24:39.955Z,6.50
2022-10-08T19:27:09.609Z,12.13
2022-10-08T19:29:39.442Z,9.70
2022-10-08T19:32:07.668Z,6.18
2022-10-08T19:34:42.918Z,5.47
2022-10-08T19:37:11.353Z,4.95
2022-10-08T19:39:44.090Z,8.13
2022-10-08T19:42:13.979Z,5.10
2022-10-08T19:44:42.272Z,4.45
2022-10-08T19:47:11.024Z,6.00
2022-10-08T19:49:39.389Z,5.95
2022-10-08T19:52:08.098Z,7.15
2022-10-08T19:54:37.741Z,6.50
2022-10-08T19:57:07.630Z,3.42
2022-10-08T19:59:35.843Z,5.50
2022-10-08T20:02:04.380Z,3.58
2022-10-08T20:04:32.888Z,4.05
2022-10-08T20:07:02.296Z,5.57
2022-10-08T20:09:37.211Z,7.93
2022-10-08T20:12:07.277Z,5.68
2022-10-08T20:14:36.717Z,5.25
2022-10-08T20:17:05.018Z,5.53
2022-10-08T20:19:34.111Z,5.85
2022-10-08T20:22:02.689Z,6.13
2022-10-08T20:24:30.917Z,5.35
2022-10-08T20:26:59.164Z,3.47
2022-10-08T20:29:31.143Z,7.05
2022-10-08T20:32:03.810Z,4.93
2022-10-08T20:34:33.488Z,6.38
2022-10-08T20:37:02.979Z,13.02
2022-10-08T20:39:31.422Z,6.28
2022-10-08T20:42:00.233Z,4.47
2022-10-08T20:44:32.455Z,6.40
2022-10-08T20:47:01.927Z,6.15
2022-10-08T20:49:36.069Z,6.30
2022-10-08T20:52:08.154Z,7.50
2022-10-08T20:54:36.656Z,4.50
2022-10-08T20:57:08.046Z,5.60
2022-10-08T20:59:37.693Z,4.63
2022-10-08T21:02:06.531Z,6.80
2022-10-08T21:04:34.891Z,7.40
2022-10-08T21:07:03.176Z,6.13
2022-10-08T21:09:31.774Z,8.20
2022-10-08T21:12:00.181Z,5.40
2022-10-08T21:14:29.799Z,4.63
2022-10-08T21:16:59.542Z,5.63
2022-10-08T21:19:28.410Z,4.60
2022-10-08T21:21:56.965Z,3.00
2022-10-08T21:24:25.612Z,2.13
2022-10-08T21:26:53.862Z,7.47
2022-10-08T21:29:22.097Z,2.58
2022-10-08T21:31:50.662Z,7.75
2022-10-08T21:34:22.724Z,1.67
2022-10-08T21:36:52.315Z,3.92
2022-10-08T21:39:22.626Z,5.93
2022-10-08T21:41:52.538Z,10.40
2022-10-08T21:44:20.962Z,4.95
2022-10-08T21:46:49.698Z,5.25
2022-10-08T21:49:21.041Z,6.93
2022-10-08T21:51:51.804Z,3.90
2022-10-08T21:54:22.829Z,6.25
2022-10-08T21:56:51.249Z,5.13
2022-10-08T21:59:21.950Z,9.85
2022-10-08T22:01:51.943Z,7.35
2022-10-08T22:04:24.614Z,6.40
2022-10-08T22:06:54.476Z,4.30
2022-10-08T22:09:24.481Z,7.55
2022-10-08T22:11:54.629Z,6.47
2022-10-08T22:14:25.660Z,5.97
2022-10-08T22:16:53.983Z,8.40
2022-10-08T22:19:23.714Z,9.02
2022-10-08T22:21:53.459Z,9.15
2022-10-08T22:24:21.713Z,11.57
2022-10-08T22:26:50.107Z,6.50
2022-10-08T22:29:19.884Z,6.65
2022-10-08T22:31:48.949Z,6.88
2022-10-08T22:34:17.233Z,6.65
2022-10-08T22:36:46.864Z,6.05
2022-10-08T22:39:18.272Z,12.32
2022-10-08T22:41:46.420Z,7.65
2022-10-08T22:44:14.550Z,5.82
2022-10-08T22:46:42.942Z,9.82
2022-10-08T22:49:13.330Z,10.00
2022-10-08T22:51:43.827Z,5.60
2022-10-08T22:54:13.701Z,4.72
2022-10-08T22:56:43.740Z,3.22
2022-10-08T22:59:14.199Z,5.47
2022-10-08T23:01:42.498Z,4.75
2022-10-08T23:04:12.918Z,5.80
2022-10-08T23:06:41.368Z,2.72
2022-10-08T23:09:16.362Z,6.13
2022-10-08T23:11:44.687Z,5.22
2022-10-08T23:14:12.906Z,5.60
2022-10-08T23:16:41.850Z,4.60
2022-10-08T23:19:11.732Z,4.25
2022-10-08T23:21:43.483Z,3.47
2022-10-08T23:24:12.725Z,5.15
2022-10-08T23:26:42.380Z,2.50
2022-10-08T23:29:13.965Z,5.15
2022-10-08T23:31:42.128Z,3.60
2022-10-08T23:34:10.595Z,6.85
2022-10-08T23:36:40.928Z,5.43
2022-10-08T23:39:12.687Z,4.43
2022-10-08T23:41:42.602Z,6.50
2022-10-08T23:44:13.495Z,4.43
2022-10-08T23:46:41.687Z,2.13
2022-10-08T23:49:10.052Z,9.82
2022-10-08T23:51:38.134Z,8.10
2022-10-08T23:54:09.996Z,5.05
2022-10-08T23:56:40.959Z,4.97
2022-10-08T23:59:11.250Z,9.27
